createdAt,value
2019-05-03T00:03:58.382Z,83.7
2019-05-03T00:08:58.363Z,83.6
2019-05-03T00:13:58.534Z,83.6
2019-05-03T00:19:00.872Z,83.9
2019-05-03T00:23:58.443Z,84
2019-05-03T00:28:58.599Z,84.3
2019-05-03T00:33:58.620Z,84.7
2019-05-03T00:38:58.624Z,84.9
2019-05-03T00:43:58.608Z,85
2019-05-03T00:48:58.598Z,85.3
2019-05-03T00:53:58.644Z,85.6
2019-05-03T00:58:58.688Z,85.7
2019-05-03T01:03:58.638Z,85.7
2019-05-03T01:08:58.591Z,85.8
2019-05-03T01:14:02.591Z,86
2019-05-03T01:19:02.580Z,85.9
2019-05-03T01:24:01.704Z,86.2
2019-05-03T01:29:02.695Z,86.2
2019-05-03T01:34:02.323Z,86.6
2019-05-03T01:39:02.105Z,86.7
2019-05-03T01:44:02.209Z,86.7
2019-05-03T01:49:02.307Z,86.8
2019-05-03T01:54:02.124Z,87
2019-05-03T01:59:03.163Z,87.1
2019-05-03T02:04:03.277Z,87.1
2019-05-03T02:09:03.278Z,87.2
2019-05-03T02:14:03.240Z,87.5
2019-05-03T02:19:03.737Z,88
2019-05-03T02:24:03.366Z,87.9
2019-05-03T02:29:03.810Z,88.4
2019-05-03T02:34:03.764Z,88.5
2019-05-03T02:39:13.308Z,88.4
2019-05-03T02:44:15.578Z,88.2
2019-05-03T02:49:18.848Z,88
2019-05-03T02:54:18.883Z,87.9
2019-05-03T02:59:18.925Z,88
2019-05-03T03:04:19.022Z,88.1
2019-05-03T03:09:19.851Z,88.4
2019-05-03T03:14:20.358Z,88.4
2019-05-03T03:19:20.400Z,88.2
2019-05-03T03:24:20.314Z,88.4
2019-05-03T03:29:20.340Z,88.6
2019-05-03T03:34:20.361Z,88.5
2019-05-03T03:39:20.358Z,88.5
2019-05-03T03:44:20.393Z,88.6
2019-05-03T03:49:20.402Z,88.6
2019-05-03T03:54:20.662Z,88.4
2019-05-03T03:59:20.600Z,88.4
2019-05-03T04:04:22.338Z,88.4
2019-05-03T04:09:25.284Z,88.5
2019-05-03T04:14:23.088Z,88.5
2019-05-03T04:19:24.922Z,88.6
2019-05-03T04:24:22.479Z,88.4
2019-05-03T04:29:25.258Z,88.5
2019-05-03T04:34:22.630Z,88.4
2019-05-03T04:39:25.474Z,88.3
2019-05-03T04:44:22.434Z,88.4
2019-05-03T04:49:25.816Z,88.4
2019-05-03T04:54:24.935Z,88.2
2019-05-03T04:59:25.258Z,87.6
2019-05-03T05:04:22.455Z,87.4
2019-05-03T05:09:51.092Z,86.9
2019-05-03T05:14:51.273Z,86.4
2019-05-03T05:19:54.877Z,86
2019-05-03T05:24:55.180Z,85.4
2019-05-03T05:29:55.073Z,84.9
2019-05-03T05:34:54.926Z,85.2
2019-05-03T05:39:55.029Z,85.5
2019-05-03T05:44:55.436Z,85.2
2019-05-03T05:49:54.569Z,84.9
2019-05-03T05:55:15.860Z,84.1
2019-05-03T06:00:20.772Z,83.4
2019-05-03T06:05:25.033Z,82.7
2019-05-03T06:10:24.815Z,82.2
2019-05-03T06:15:25.011Z,82.5
2019-05-03T06:20:24.560Z,81.5
2019-05-03T06:25:26.171Z,80.6
2019-05-03T06:30:24.818Z,81.4
2019-05-03T06:35:24.360Z,80.8
2019-05-03T06:40:25.233Z,78.9
2019-05-03T06:45:25.075Z,78.7
2019-05-03T06:50:41.122Z,79.2
2019-05-03T07:00:27.636Z,77.7
2019-05-03T07:05:39.535Z,77.5
2019-05-03T07:10:40.996Z,77
2019-05-03T07:15:41.289Z,76.9
2019-05-03T07:20:40.923Z,75.6
2019-05-03T07:25:40.981Z,73.6
2019-05-03T07:30:40.924Z,72.8
2019-05-03T07:35:40.943Z,71.4
2019-05-03T07:40:41.203Z,71
2019-05-03T07:45:41.217Z,68.9
2019-05-03T07:50:41.221Z,70.3
2019-05-03T07:55:41.219Z,70.2
2019-05-03T08:00:41.233Z,68.8
2019-05-03T08:05:41.287Z,69.3
2019-05-03T08:10:41.203Z,67.9
2019-05-03T08:15:41.315Z,67
2019-05-03T08:20:41.170Z,67.3
2019-05-03T08:25:41.989Z,67.1
2019-05-03T08:30:42.008Z,66.5
2019-05-03T08:35:41.998Z,66.3
2019-05-03T08:40:42.253Z,66.1
2019-05-03T08:45:44.706Z,64.4
2019-05-03T08:50:44.934Z,63.7
2019-05-03T08:55:45.391Z,61.6
2019-05-03T09:00:45.578Z,62.6
2019-05-03T09:05:48.359Z,63.9
2019-05-03T09:10:48.370Z,62.8
2019-05-03T09:15:49.155Z,62.8
2019-05-03T09:20:49.260Z,63
2019-05-03T09:25:50.339Z,60.1
2019-05-03T09:30:50.310Z,59.7
2019-05-03T09:35:50.319Z,59.1
2019-05-03T09:40:51.909Z,59.3
2019-05-03T09:45:54.154Z,57.8
2019-05-03T09:50:52.699Z,60.3
2019-05-03T09:55:57.598Z,59.2
2019-05-03T10:00:57.586Z,58.4
2019-05-03T10:05:57.652Z,58.6
2019-05-03T10:10:57.559Z,58.3
2019-05-03T10:15:57.823Z,58.6
2019-05-03T10:21:00.916Z,57.2
2019-05-03T10:26:00.889Z,56.9
2019-05-03T10:31:00.891Z,56.6
2019-05-03T10:36:01.027Z,55
2019-05-03T10:41:01.188Z,53
2019-05-03T10:46:00.936Z,53.6
2019-05-03T10:51:04.672Z,52.9
2019-05-03T10:56:04.911Z,53.5
2019-05-03T11:01:04.541Z,54.7
2019-05-03T11:06:02.878Z,50.4
2019-05-03T11:11:02.911Z,51.5
2019-05-03T11:16:02.900Z,52.2
2019-05-03T11:21:02.856Z,51.8
2019-05-03T11:26:02.860Z,52.9
2019-05-03T11:31:05.016Z,55.3
2019-05-03T11:36:04.374Z,51.3
2019-05-03T11:41:04.841Z,52.2
2019-05-03T11:46:06.787Z,54
2019-05-03T11:51:07.324Z,51.4
2019-05-03T11:56:08.280Z,47.8
2019-05-03T12:01:15.116Z,46.7
2019-05-03T12:06:08.129Z,48.2
2019-05-03T12:11:15.007Z,49
2019-05-03T12:16:21.216Z,47.9
2019-05-03T12:21:17.758Z,48.1
2019-05-03T12:26:17.211Z,47.9
2019-05-03T12:31:28.081Z,46.6
2019-05-03T12:36:15.499Z,48.3
2019-05-03T12:41:15.147Z,44.6
2019-05-03T12:46:16.813Z,45.3
2019-05-03T12:51:15.544Z,46.7
2019-05-03T12:56:22.494Z,45.8
2019-05-03T13:01:15.663Z,44.6
2019-05-03T13:06:15.542Z,41.9
2019-05-03T13:11:17.097Z,41.5
2019-05-03T13:16:19.814Z,40.7
2019-05-03T13:22:12.490Z,42
2019-05-03T13:27:40.208Z,43.7
2019-05-03T13:34:37.767Z,42.7
2019-05-03T13:39:45.045Z,40.4
2019-05-03T13:44:50.181Z,40.5
2019-05-03T13:50:24.712Z,42.5
2019-05-03T13:55:26.880Z,42.6
2019-05-03T14:00:31.783Z,42.2
2019-05-03T14:05:44.633Z,43.1
2019-05-03T14:10:45.627Z,40.8
2019-05-03T14:15:59.144Z,42.3
2019-05-03T14:20:59.027Z,41.7
2019-05-03T14:26:18.505Z,43.5
2019-05-03T14:38:47.031Z,43.7
2019-05-03T14:44:29.048Z,44.9
2019-05-03T14:49:40.167Z,44.8
2019-05-03T14:54:40.738Z,46.1
2019-05-03T14:59:40.672Z,46.8
2019-05-03T15:04:43.913Z,47.7
2019-05-03T15:09:45.769Z,47.5
2019-05-03T15:14:45.178Z,48.3
2019-05-03T15:19:45.325Z,49.4
2019-05-03T15:25:06.694Z,48.1
2019-05-03T15:30:08.076Z,48.1
2019-05-03T15:35:08.920Z,48.2
2019-05-03T15:40:18.034Z,47.2
2019-05-03T15:45:17.958Z,48.3
2019-05-03T15:55:26.689Z,49.3
2019-05-03T16:00:26.710Z,49.5
2019-05-03T16:05:28.799Z,50.9
2019-05-03T16:10:28.836Z,50.9
2019-05-03T16:15:29.976Z,52.1
2019-05-03T16:20:39.091Z,53.1
2019-05-03T16:25:35.686Z,53.9
2019-05-03T16:30:36.628Z,55.3
2019-05-03T16:35:41.094Z,55.1
2019-05-03T16:40:42.293Z,56.6
2019-05-03T16:52:06.020Z,59.1
2019-05-03T16:57:24.736Z,59.2
2019-05-03T17:02:31.971Z,61
2019-05-03T17:07:32.297Z,60.6
2019-05-03T17:12:34.783Z,61.6
2019-05-03T17:17:35.789Z,62.5
2019-05-03T17:24:35.158Z,63.7
2019-05-03T17:29:55.973Z,63.9
2019-05-03T17:34:56.171Z,64.1
2019-05-03T17:40:02.771Z,65
2019-05-03T17:45:29.882Z,65.2
2019-05-03T17:50:55.020Z,65.1
2019-05-03T17:55:56.729Z,65.2
2019-05-03T18:01:35.201Z,65.7
2019-05-03T18:14:39.682Z,68.4
2019-05-03T18:20:38.257Z,68.9
2019-05-03T18:33:17.453Z,69
2019-05-03T18:52:36.430Z,69.3
2019-05-03T18:57:47.611Z,69.4
2019-05-03T19:02:54.594Z,70.6
2019-05-03T19:08:54.212Z,71.4
2019-05-03T19:14:40.971Z,72
2019-05-03T19:19:51.574Z,72.2
2019-05-03T19:25:46.697Z,72.3
2019-05-03T19:31:01.287Z,72.4
2019-05-03T19:43:35.506Z,72.9
2019-05-03T19:48:35.515Z,72.9
2019-05-03T19:54:35.891Z,72.9
2019-05-03T20:02:36.105Z,73.1
2019-05-03T20:11:16.774Z,73.3
2019-05-03T20:16:26.267Z,73.6
2019-05-03T20:22:10.467Z,73.4
2019-05-03T20:27:28.991Z,73.6
2019-05-03T20:32:56.029Z,73.8
2019-05-03T20:43:52.302Z,74.9
2019-05-03T20:48:54.159Z,75
2019-05-03T20:53:55.322Z,75.2
2019-05-03T20:58:55.663Z,75.2
2019-05-03T21:04:50.654Z,75.8
2019-05-03T21:09:50.644Z,75.7
2019-05-03T21:14:50.593Z,75.6
2019-05-03T21:19:50.628Z,75.9
2019-05-03T21:24:50.756Z,75.8
2019-05-03T21:29:50.888Z,75.5
2019-05-03T21:34:50.900Z,75.5
2019-05-03T21:39:51.777Z,75.6
2019-05-03T21:44:51.877Z,75.8
2019-05-03T21:49:51.880Z,76.1
2019-05-03T21:54:52.063Z,76.3
2019-05-03T21:59:54.889Z,76
2019-05-03T22:04:53.109Z,76.4
2019-05-03T22:09:54.448Z,76.7
2019-05-03T22:14:54.495Z,77
2019-05-03T22:19:54.308Z,77
2019-05-03T22:24:53.113Z,77
2019-05-03T22:29:54.569Z,77
2019-05-03T22:34:53.195Z,76.9
2019-05-03T22:39:54.962Z,77.2
2019-05-03T22:44:55.205Z,77.1
2019-05-03T22:49:54.738Z,77.2
2019-05-03T22:54:53.118Z,77.5
2019-05-03T22:59:53.296Z,77.4
2019-05-03T23:04:55.246Z,77.7
2019-05-03T23:09:53.091Z,77.6
2019-05-03T23:14:54.979Z,77.8
2019-05-03T23:19:53.208Z,78
2019-05-03T23:24:54.778Z,78.7
2019-05-03T23:29:54.469Z,79
2019-05-03T23:34:54.381Z,79.1
2019-05-03T23:39:55.105Z,79.4
2019-05-03T23:44:54.024Z,79.5
2019-05-03T23:49:55.357Z,79.9
2019-05-03T23:54:54.877Z,80.1
2019-05-03T23:59:54.915Z,80.8
